Time;durP1;ratioP1;P1;durP2;ratioP2;P2;SDS_P1;SDS_P2;PMS_P1;PMS_P2;Temp;Humidity;BMP_temperature;BMP_pressure;BME280_temperature;BME280_humidity;BME280_pressure;Samples;Min_cycle;Max_cycle;Signal;HPM_P1;HPM_P2
2022/07/03 00:01:43;;;;;;;7.00;6.50;;;;;;;;;;5064006;28;24441;-49
2022/07/03 00:04:08;;;;;;;7.15;6.65;;;;;;;;;;5061503;28;24411;-48
2022/07/03 00:06:33;;;;;;;6.97;6.47;;;;;;;;;;5067268;28;24473;-49
2022/07/03 00:08:59;;;;;;;6.80;6.40;;;;;;;;;;5067357;28;24414;-48
2022/07/03 00:11:24;;;;;;;7.50;6.80;;;;;;;;;;5065672;28;24453;-48
2022/07/03 00:13:50;;;;;;;6.90;6.40;;;;;;;;;;5071506;28;24830;-48
2022/07/03 00:16:15;;;;;;;7.30;6.80;;;;;;;;;;5048761;28;25069;-48
2022/07/03 00:18:40;;;;;;;7.63;6.93;;;;;;;;;;5067453;28;24575;-48
2022/07/03 00:21:08;;;;;;;7.10;6.60;;;;;;;;;;5062505;28;24427;-48
2022/07/03 00:23:39;;;;;;;6.80;6.28;;;;;;;;;;5071748;28;24425;-48
2022/07/03 00:26:04;;;;;;;6.30;5.90;;;;;;;;;;5072654;28;24418;-48
2022/07/03 00:28:31;;;;;;;6.20;5.80;;;;;;;;;;5075215;28;24467;-48
2022/07/03 00:30:56;;;;;;;6.10;5.70;;;;;;;;;;5061431;28;24940;-48
2022/07/03 00:33:22;;;;;;;6.10;5.68;;;;;;;;;;5066604;28;24430;-47
2022/07/03 00:35:49;;;;;;;6.40;6.00;;;;;;;;;;5065552;28;24426;-47
2022/07/03 00:38:15;;;;;;;6.50;6.00;;;;;;;;;;5063784;28;24452;-47
2022/07/03 00:40:40;;;;;;;6.10;5.70;;;;;;;;;;5057851;28;24573;-48
2022/07/03 00:43:06;;;;;;;6.80;6.20;;;;;;;;;;5077714;28;24567;-48
2022/07/03 00:45:33;;;;;;;6.00;5.60;;;;;;;;;;5067459;28;24438;-48
2022/07/03 00:47:58;;;;;;;6.07;5.60;;;;;;;;;;5066015;28;24442;-48
2022/07/03 00:50:24;;;;;;;6.10;5.70;;;;;;;;;;5069114;28;24806;-49
2022/07/03 00:52:51;;;;;;;6.63;6.13;;;;;;;;;;5062660;28;24489;-49
2022/07/03 00:55:20;;;;;;;6.78;6.28;;;;;;;;;;5063092;28;22258;-48
2022/07/03 00:57:47;;;;;;;6.00;5.50;;;;;;;;;;5064691;28;24418;-48
2022/07/03 01:00:16;;;;;;;6.47;6.05;;;;;;;;;;5067480;28;24465;-48
2022/07/03 01:02:44;;;;;;;6.50;6.00;;;;;;;;;;5061306;28;24421;-49
2022/07/03 01:05:09;;;;;;;6.43;5.93;;;;;;;;;;5062476;28;24491;-47
2022/07/03 01:07:45;;;;;;;5.90;5.50;;;;;;;;;;5051626;28;25056;-48
2022/07/03 01:10:29;;;;;;;6.20;5.78;;;;;;;;;;5046144;28;24465;-48
2022/07/03 01:12:55;;;;;;;6.03;5.63;;;;;;;;;;5067162;28;24751;-48
2022/07/03 01:15:27;;;;;;;6.88;6.38;;;;;;;;;;5061736;28;24429;-48
2022/07/03 01:17:58;;;;;;;6.28;5.78;;;;;;;;;;5063602;28;24419;-48
2022/07/03 01:20:27;;;;;;;5.93;5.53;;;;;;;;;;5057987;28;24458;-48
2022/07/03 01:22:54;;;;;;;6.10;5.70;;;;;;;;;;5068745;28;25014;-48
2022/07/03 01:25:28;;;;;;;6.70;6.20;;;;;;;;;;5065447;28;24422;-48
2022/07/03 01:28:00;;;;;;;6.50;6.00;;;;;;;;;;5062628;28;24501;-48
2022/07/03 01:30:26;;;;;;;7.22;6.63;;;;;;;;;;5061903;28;24525;-49
2022/07/03 01:33:00;;;;;;;6.90;6.40;;;;;;;;;;5065116;28;24423;-48
2022/07/03 01:35:27;;;;;;;6.78;6.35;;;;;;;;;;5062820;28;24425;-48
2022/07/03 01:37:54;;;;;;;7.28;6.78;;;;;;;;;;5078694;28;24579;-48
2022/07/03 01:40:21;;;;;;;6.70;6.20;;;;;;;;;;5067090;28;24439;-49
2022/07/03 01:42:48;;;;;;;7.20;6.70;;;;;;;;;;5050822;28;25308;-48
2022/07/03 01:45:14;;;;;;;7.57;6.97;;;;;;;;;;5052633;28;24577;-48
2022/07/03 01:47:45;;;;;;;6.10;5.70;;;;;;;;;;5077500;28;24505;-48
2022/07/03 01:50:11;;;;;;;6.63;6.22;;;;;;;;;;5066548;28;24437;-48
2022/07/03 01:52:37;;;;;;;7.20;6.70;;;;;;;;;;5053210;28;25007;-48
2022/07/03 01:55:04;;;;;;;6.55;6.15;;;;;;;;;;5056631;28;24429;-48
2022/07/03 01:57:35;;;;;;;5.95;5.50;;;;;;;;;;5056076;28;24497;-48
2022/07/03 02:00:01;;;;;;;6.10;5.70;;;;;;;;;;5067039;28;24419;-48
2022/07/03 02:02:32;;;;;;;7.00;6.50;;;;;;;;;;5058081;28;24770;-48
2022/07/03 02:05:00;;;;;;;7.13;6.60;;;;;;;;;;5068914;28;24544;-49
2022/07/03 02:07:46;;;;;;;6.30;5.90;;;;;;;;;;5067129;28;24964;-49
2022/07/03 02:10:13;;;;;;;5.90;5.40;;;;;;;;;;5074798;28;24457;-49
2022/07/03 02:12:40;;;;;;;7.05;6.45;;;;;;;;;;5058249;28;24415;-48
2022/07/03 02:15:07;;;;;;;5.95;5.55;;;;;;;;;;5053109;28;24788;-47
2022/07/03 02:17:42;;;;;;;7.07;6.57;;;;;;;;;;5065407;28;24510;-48
2022/07/03 02:20:07;;;;;;;6.20;5.80;;;;;;;;;;5064509;28;24903;-49
2022/07/03 02:22:34;;;;;;;6.60;6.00;;;;;;;;;;5065702;28;25035;-48
2022/07/03 02:25:04;;;;;;;6.40;5.90;;;;;;;;;;5056522;28;24418;-49
2022/07/03 02:27:31;;;;;;;6.60;6.10;;;;;;;;;;5058848;28;24507;-49
2022/07/03 02:30:02;;;;;;;6.43;5.93;;;;;;;;;;5066746;28;24488;-48
2022/07/03 02:32:30;;;;;;;6.80;6.38;;;;;;;;;;5065032;28;24514;-48
2022/07/03 02:34:57;;;;;;;6.80;6.30;;;;;;;;;;5063683;28;25094;-48
2022/07/03 02:37:24;;;;;;;7.53;6.88;;;;;;;;;;5052952;28;24446;-48
2022/07/03 02:40:10;;;;;;;6.50;6.00;;;;;;;;;;5075419;28;24984;-48
2022/07/03 02:42:39;;;;;;;6.70;6.20;;;;;;;;;;5082551;28;24557;-48
2022/07/03 02:45:05;;;;;;;6.80;6.30;;;;;;;;;;5062187;28;25035;-48
2022/07/03 02:47:35;;;;;;;6.90;6.30;;;;;;;;;;5070068;28;24427;-48
2022/07/03 02:50:03;;;;;;;6.25;5.85;;;;;;;;;;5066688;28;24498;-48
2022/07/03 02:52:34;;;;;;;6.80;6.20;;;;;;;;;;5064392;28;24475;-48
2022/07/03 02:55:02;;;;;;;6.60;6.10;;;;;;;;;;5073288;28;24855;-48
2022/07/03 02:57:29;;;;;;;6.80;6.30;;;;;;;;;;5061978;28;24446;-48
2022/07/03 02:59:54;;;;;;;5.70;5.30;;;;;;;;;;5079385;28;24422;-49
2022/07/03 03:02:38;;;;;;;6.37;5.90;;;;;;;;;;5061529;28;25022;-48
2022/07/03 03:05:13;;;;;;;6.30;5.90;;;;;;;;;;5064787;28;24864;-48
2022/07/03 03:07:58;;;;;;;6.55;6.10;;;;;;;;;;5065729;28;24519;-48
2022/07/03 03:10:23;;;;;;;6.80;6.30;;;;;;;;;;5033648;28;24437;-49
2022/07/03 03:12:55;;;;;;;6.28;5.88;;;;;;;;;;5065396;28;24419;-48
2022/07/03 03:15:23;;;;;;;6.32;5.93;;;;;;;;;;5072100;28;24487;-48
2022/07/03 03:17:50;;;;;;;6.72;6.32;;;;;;;;;;5050973;28;24488;-48
2022/07/03 03:20:16;;;;;;;6.72;6.30;;;;;;;;;;5063156;28;24438;-48
2022/07/03 03:22:58;;;;;;;6.38;5.80;;;;;;;;;;5049997;28;24473;-48
2022/07/03 03:25:24;;;;;;;6.40;5.90;;;;;;;;;;5060762;28;24518;-48
2022/07/03 03:27:49;;;;;;;6.87;6.37;;;;;;;;;;5065095;28;24518;-48
2022/07/03 03:30:14;;;;;;;7.05;6.45;;;;;;;;;;5064216;28;25422;-49
2022/07/03 03:32:40;;;;;;;7.50;6.90;;;;;;;;;;5073670;28;24576;-48
2022/07/03 03:35:05;;;;;;;7.18;6.68;;;;;;;;;;5063355;28;24770;-47
2022/07/03 03:37:31;;;;;;;7.43;6.60;;;;;;;;;;5069893;28;24419;-47
2022/07/03 03:39:56;;;;;;;7.05;6.55;;;;;;;;;;5069782;28;24899;-47
2022/07/03 03:42:22;;;;;;;6.60;6.10;;;;;;;;;;5070907;28;24429;-47
2022/07/03 03:44:47;;;;;;;6.03;5.53;;;;;;;;;;5063085;28;24419;-47
2022/07/03 03:47:12;;;;;;;6.40;5.90;;;;;;;;;;5077035;28;24406;-47
2022/07/03 03:49:37;;;;;;;6.83;6.33;;;;;;;;;;5066220;28;25198;-47
2022/07/03 03:52:02;;;;;;;5.80;5.40;;;;;;;;;;5062557;28;24433;-47
2022/07/03 03:54:27;;;;;;;6.23;5.73;;;;;;;;;;5076906;28;24784;-47
2022/07/03 03:56:53;;;;;;;6.45;5.95;;;;;;;;;;5066461;28;24418;-47
2022/07/03 03:59:18;;;;;;;5.70;5.30;;;;;;;;;;5077678;28;24422;-46
2022/07/03 04:01:45;;;;;;;5.47;5.07;;;;;;;;;;5060151;28;24521;-46
2022/07/03 04:04:12;;;;;;;5.40;5.00;;;;;;;;;;5051173;28;24453;-46
2022/07/03 04:06:37;;;;;;;5.80;5.00;;;;;;;;;;5059219;28;25968;-47
2022/07/03 04:09:02;;;;;;;5.60;5.20;;;;;;;;;;5063914;28;24908;-45
2022/07/03 04:11:27;;;;;;;4.80;4.50;;;;;;;;;;5082892;28;24967;-46
2022/07/03 04:13:52;;;;;;;5.70;5.10;;;;;;;;;;5070714;28;25091;-46
2022/07/03 04:16:18;;;;;;;5.45;5.05;;;;;;;;;;5062660;28;24961;-45
2022/07/03 04:18:43;;;;;;;5.40;5.00;;;;;;;;;;5065349;28;24426;-45
2022/07/03 04:21:08;;;;;;;5.22;4.90;;;;;;;;;;5069788;28;24433;-45
2022/07/03 04:23:33;;;;;;;5.25;4.75;;;;;;;;;;5068828;28;24480;-45
2022/07/03 04:26:05;;;;;;;5.55;5.18;;;;;;;;;;5057055;28;24761;-46
2022/07/03 04:28:30;;;;;;;4.90;4.60;;;;;;;;;;5055331;28;24481;-46
2022/07/03 04:30:55;;;;;;;5.20;4.90;;;;;;;;;;5063420;28;24819;-46
2022/07/03 04:33:20;;;;;;;5.40;5.00;;;;;;;;;;5075364;28;24415;-47
2022/07/03 04:35:46;;;;;;;4.70;4.40;;;;;;;;;;5062024;28;24437;-46
2022/07/03 04:38:11;;;;;;;4.50;4.20;;;;;;;;;;5057123;28;24438;-46
2022/07/03 04:40:36;;;;;;;4.65;4.35;;;;;;;;;;5058574;28;24426;-46
2022/07/03 04:43:01;;;;;;;4.53;4.25;;;;;;;;;;5067895;28;24507;-49
2022/07/03 04:45:26;;;;;;;4.20;3.90;;;;;;;;;;5057713;28;24427;-46
2022/07/03 04:47:52;;;;;;;4.60;4.30;;;;;;;;;;5055565;28;24480;-47
2022/07/03 04:50:17;;;;;;;4.47;4.23;;;;;;;;;;5055253;28;24783;-47
2022/07/03 04:52:42;;;;;;;4.45;4.15;;;;;;;;;;5066207;28;24422;-46
2022/07/03 04:55:09;;;;;;;4.60;4.30;;;;;;;;;;5061369;28;24534;-47
2022/07/03 04:57:34;;;;;;;4.22;3.92;;;;;;;;;;5063067;28;24432;-46
2022/07/03 05:00:00;;;;;;;4.35;3.95;;;;;;;;;;5072184;28;24518;-46
2022/07/03 05:02:25;;;;;;;4.00;3.70;;;;;;;;;;5060039;28;25033;-47
2022/07/03 05:04:50;;;;;;;3.92;3.72;;;;;;;;;;5061925;28;24422;-47
2022/07/03 05:07:15;;;;;;;4.47;4.17;;;;;;;;;;5058971;28;24517;-47
2022/07/03 05:09:40;;;;;;;4.22;3.92;;;;;;;;;;5063808;28;24804;-47
2022/07/03 05:12:05;;;;;;;4.65;4.25;;;;;;;;;;5056585;28;24458;-47
2022/07/03 05:14:31;;;;;;;4.10;3.80;;;;;;;;;;5059313;28;24469;-46
2022/07/03 05:16:56;;;;;;;3.33;3.13;;;;;;;;;;5056793;28;24831;-46
2022/07/03 05:19:21;;;;;;;3.80;3.50;;;;;;;;;;5070000;28;24528;-47
2022/07/03 05:21:46;;;;;;;3.90;3.67;;;;;;;;;;5055969;28;24422;-48
2022/07/03 05:24:11;;;;;;;3.88;3.58;;;;;;;;;;5060971;28;24425;-48
2022/07/03 05:26:36;;;;;;;3.87;3.57;;;;;;;;;;5062644;28;24687;-47
2022/07/03 05:29:02;;;;;;;3.60;3.40;;;;;;;;;;5073954;28;24426;-48
2022/07/03 05:31:27;;;;;;;3.60;3.30;;;;;;;;;;5063360;28;24472;-48
2022/07/03 05:33:52;;;;;;;3.90;3.60;;;;;;;;;;5062698;28;26099;-48
2022/07/03 05:36:17;;;;;;;3.90;3.60;;;;;;;;;;5068646;28;24421;-47
2022/07/03 05:41:26;;;;;;;3.90;3.70;;;;;;;;;;5066280;28;24480;-48
2022/07/03 05:43:52;;;;;;;3.80;3.60;;;;;;;;;;5065635;28;24419;-48
2022/07/03 05:46:17;;;;;;;3.72;3.50;;;;;;;;;;5062943;28;24433;-47
2022/07/03 05:48:42;;;;;;;3.88;3.67;;;;;;;;;;5064264;28;24477;-47
2022/07/03 05:51:07;;;;;;;3.63;3.42;;;;;;;;;;5062033;28;24798;-48
2022/07/03 05:53:32;;;;;;;3.80;3.50;;;;;;;;;;5061764;28;24425;-46
2022/07/03 05:55:58;;;;;;;3.60;3.40;;;;;;;;;;5064061;28;24439;-46
2022/07/03 05:58:23;;;;;;;3.80;3.60;;;;;;;;;;5065369;28;25124;-48
2022/07/03 06:00:48;;;;;;;3.60;3.40;;;;;;;;;;5069365;28;24612;-46
2022/07/03 06:03:13;;;;;;;3.85;3.65;;;;;;;;;;5061546;28;24955;-47
2022/07/03 06:05:38;;;;;;;3.60;3.40;;;;;;;;;;5061325;28;24542;-47
2022/07/03 06:08:04;;;;;;;4.00;3.70;;;;;;;;;;5062085;28;24430;-47
2022/07/03 06:10:29;;;;;;;3.50;3.30;;;;;;;;;;5058255;28;24430;-45
2022/07/03 06:12:54;;;;;;;3.80;3.60;;;;;;;;;;5065965;28;25040;-46
2022/07/03 06:15:19;;;;;;;3.63;3.43;;;;;;;;;;5064163;28;24434;-46
2022/07/03 06:17:44;;;;;;;3.70;3.50;;;;;;;;;;5061485;28;24590;-46
2022/07/03 06:20:10;;;;;;;4.20;3.90;;;;;;;;;;5063630;28;24492;-47
2022/07/03 06:22:35;;;;;;;3.80;3.60;;;;;;;;;;5062349;28;24941;-46
2022/07/03 06:25:00;;;;;;;3.80;3.60;;;;;;;;;;5065186;28;24986;-50
2022/07/03 06:27:25;;;;;;;4.70;4.40;;;;;;;;;;5075438;28;24440;-47
2022/07/03 06:29:51;;;;;;;4.38;3.97;;;;;;;;;;5064288;28;24479;-47
2022/07/03 06:32:16;;;;;;;4.40;4.10;;;;;;;;;;5076930;28;24987;-47
2022/07/03 06:34:42;;;;;;;4.20;3.90;;;;;;;;;;5067307;28;24441;-48
2022/07/03 06:37:08;;;;;;;4.50;4.20;;;;;;;;;;5064352;28;24478;-47
2022/07/03 06:39:33;;;;;;;4.80;4.50;;;;;;;;;;5075551;28;24497;-47
2022/07/03 06:41:58;;;;;;;4.53;4.20;;;;;;;;;;5075984;28;24512;-47
2022/07/03 06:44:23;;;;;;;4.13;3.93;;;;;;;;;;5074172;28;24409;-47
2022/07/03 06:46:48;;;;;;;4.00;3.70;;;;;;;;;;5078518;28;24777;-48
2022/07/03 06:49:13;;;;;;;4.30;4.00;;;;;;;;;;5075579;28;25002;-47
2022/07/03 06:51:39;;;;;;;4.40;4.10;;;;;;;;;;5065818;28;24494;-47
2022/07/03 06:54:04;;;;;;;4.10;3.80;;;;;;;;;;5068128;28;24410;-47
2022/07/03 06:56:29;;;;;;;3.70;3.50;;;;;;;;;;5067401;28;25040;-48
2022/07/03 06:58:54;;;;;;;4.20;3.90;;;;;;;;;;5068267;28;24434;-48
2022/07/03 07:01:19;;;;;;;4.30;4.00;;;;;;;;;;5065838;28;24438;-48
2022/07/03 07:03:44;;;;;;;4.63;4.32;;;;;;;;;;5064221;28;24406;-48
2022/07/03 07:06:09;;;;;;;4.33;4.03;;;;;;;;;;5061235;28;24434;-48
2022/07/03 07:08:35;;;;;;;4.40;4.10;;;;;;;;;;5070757;28;24902;-48
2022/07/03 07:11:00;;;;;;;4.40;4.00;;;;;;;;;;5064982;28;24425;-48
2022/07/03 07:13:25;;;;;;;3.50;3.30;;;;;;;;;;5062708;28;24418;-48
2022/07/03 07:15:50;;;;;;;4.60;4.20;;;;;;;;;;5062895;28;24449;-47
2022/07/03 07:18:15;;;;;;;4.90;4.50;;;;;;;;;;5062767;28;24831;-47
2022/07/03 07:20:41;;;;;;;4.30;4.00;;;;;;;;;;5049018;28;24430;-46
2022/07/03 07:23:06;;;;;;;4.22;3.92;;;;;;;;;;5065950;28;24426;-46
2022/07/03 07:25:31;;;;;;;4.20;3.90;;;;;;;;;;5065766;28;24921;-47
2022/07/03 07:27:56;;;;;;;3.80;3.60;;;;;;;;;;5046710;28;24434;-47
2022/07/03 07:30:21;;;;;;;4.10;3.70;;;;;;;;;;5047681;28;24395;-47
2022/07/03 07:32:46;;;;;;;4.10;3.80;;;;;;;;;;5043735;28;24492;-48
2022/07/03 07:35:11;;;;;;;4.20;3.90;;;;;;;;;;5046910;28;24418;-47
2022/07/03 07:37:37;;;;;;;4.10;3.80;;;;;;;;;;5064065;28;24434;-48
2022/07/03 07:40:02;;;;;;;4.13;3.80;;;;;;;;;;5067218;28;24399;-47
2022/07/03 07:42:28;;;;;;;4.20;3.90;;;;;;;;;;5065814;28;24434;-47
2022/07/03 07:44:53;;;;;;;3.90;3.60;;;;;;;;;;5065320;28;24415;-47
2022/07/03 07:47:18;;;;;;;3.90;3.60;;;;;;;;;;5044586;28;24423;-48
2022/07/03 07:49:43;;;;;;;4.17;3.87;;;;;;;;;;5046998;28;24483;-47
2022/07/03 07:52:08;;;;;;;4.40;4.10;;;;;;;;;;5065694;28;24454;-47
2022/07/03 07:54:33;;;;;;;3.92;3.63;;;;;;;;;;5065369;28;25135;-46
2022/07/03 07:56:58;;;;;;;4.50;4.20;;;;;;;;;;5065729;28;24423;-46
2022/07/03 07:59:24;;;;;;;3.80;3.55;;;;;;;;;;5066801;28;24430;-47
2022/07/03 08:07:17;;;;;;;4.13;3.83;;;;;;;;;;5066726;28;24964;-48
2022/07/03 08:09:42;;;;;;;4.30;4.00;;;;;;;;;;5066593;28;25000;-48
2022/07/03 08:12:07;;;;;;;4.40;4.00;;;;;;;;;;5066649;28;24444;-48
2022/07/03 08:14:32;;;;;;;4.18;3.80;;;;;;;;;;5066621;28;24387;-48
2022/07/03 08:16:58;;;;;;;4.40;4.10;;;;;;;;;;5065982;28;24395;-48
2022/07/03 08:19:23;;;;;;;3.92;3.72;;;;;;;;;;5066604;28;24490;-48
2022/07/03 08:21:48;;;;;;;3.92;3.72;;;;;;;;;;5066034;28;24785;-48
2022/07/03 08:24:13;;;;;;;4.30;4.00;;;;;;;;;;5066397;28;24398;-48
2022/07/03 08:26:38;;;;;;;4.00;3.70;;;;;;;;;;5066263;28;24425;-49
2022/07/03 08:29:03;;;;;;;4.00;3.70;;;;;;;;;;5066385;28;24401;-49
2022/07/03 08:31:29;;;;;;;4.40;4.10;;;;;;;;;;5065816;28;24494;-47
2022/07/03 08:33:54;;;;;;;4.50;4.10;;;;;;;;;;5065998;28;24383;-49
2022/07/03 08:36:19;;;;;;;4.38;4.07;;;;;;;;;;5066325;28;24748;-49
2022/07/03 08:38:44;;;;;;;3.90;3.60;;;;;;;;;;5064018;28;24852;-48
2022/07/03 08:41:10;;;;;;;4.10;3.80;;;;;;;;;;5065967;28;24434;-48
2022/07/03 08:43:36;;;;;;;3.90;3.60;;;;;;;;;;5066036;28;24457;-48
2022/07/03 08:46:02;;;;;;;4.30;3.90;;;;;;;;;;5065675;28;24423;-48
2022/07/03 08:48:29;;;;;;;4.05;3.75;;;;;;;;;;5065916;28;24409;-49
2022/07/03 08:50:56;;;;;;;4.07;3.78;;;;;;;;;;5065690;28;24391;-49
2022/07/03 08:53:21;;;;;;;4.43;4.03;;;;;;;;;;5065914;28;24425;-48
2022/07/03 08:55:50;;;;;;;5.00;3.60;;;;;;;;;;5065638;28;24395;-48
2022/07/03 08:58:18;;;;;;;3.90;3.70;;;;;;;;;;5065491;28;24494;-48
2022/07/03 09:00:44;;;;;;;3.80;3.60;;;;;;;;;;5065658;28;24439;-48
2022/07/03 09:03:10;;;;;;;3.60;3.40;;;;;;;;;;5065321;28;24480;-48
2022/07/03 09:05:35;;;;;;;3.83;3.53;;;;;;;;;;5065570;28;24409;-49
2022/07/03 09:08:01;;;;;;;3.50;3.30;;;;;;;;;;5065796;28;24932;-48
2022/07/03 09:10:26;;;;;;;3.47;3.28;;;;;;;;;;5065597;28;24379;-48
2022/07/03 09:12:52;;;;;;;3.50;3.30;;;;;;;;;;5065267;28;24460;-49
2022/07/03 09:15:17;;;;;;;3.80;3.50;;;;;;;;;;5065072;28;24440;-48
2022/07/03 09:18:02;;;;;;;4.20;3.90;;;;;;;;;;5063870;28;24468;-48
2022/07/03 09:20:29;;;;;;;3.80;3.60;;;;;;;;;;5065126;28;24628;-48
2022/07/03 09:23:07;;;;;;;3.70;3.50;;;;;;;;;;5045350;28;24387;-49
2022/07/03 09:25:32;;;;;;;3.65;3.45;;;;;;;;;;5045657;28;24413;-48
2022/07/03 09:27:57;;;;;;;3.70;3.50;;;;;;;;;;5044828;28;24415;-48
2022/07/03 09:30:23;;;;;;;3.90;3.50;;;;;;;;;;5045378;28;24929;-48
2022/07/03 09:32:49;;;;;;;3.90;3.60;;;;;;;;;;5045352;28;24423;-48
2022/07/03 09:35:22;;;;;;;3.40;3.20;;;;;;;;;;5045369;28;24449;-48
2022/07/03 09:37:57;;;;;;;3.95;3.60;;;;;;;;;;5044845;28;24421;-48
2022/07/03 09:40:22;;;;;;;3.85;3.65;;;;;;;;;;5045294;28;24384;-47
2022/07/03 09:43:01;;;;;;;4.07;3.78;;;;;;;;;;5045293;28;24446;-47
2022/07/03 09:45:26;;;;;;;3.95;3.65;;;;;;;;;;5044882;28;24423;-48
2022/07/03 09:47:51;;;;;;;3.80;3.50;;;;;;;;;;5043263;28;24390;-48
2022/07/03 09:50:16;;;;;;;3.70;3.40;;;;;;;;;;5045254;28;24490;-48
2022/07/03 09:52:45;;;;;;;3.90;3.60;;;;;;;;;;5045161;28;24994;-46
2022/07/03 09:55:10;;;;;;;3.80;3.50;;;;;;;;;;5047810;28;24514;-47
2022/07/03 09:57:36;;;;;;;3.40;3.20;;;;;;;;;;5063297;28;24470;-48
2022/07/03 10:00:14;;;;;;;3.85;3.55;;;;;;;;;;5060784;28;24415;-48
2022/07/03 10:03:09;;;;;;;3.47;3.20;;;;;;;;;;5043442;28;24487;-49
2022/07/03 10:05:41;;;;;;;3.40;3.20;;;;;;;;;;5039535;28;24519;-48
2022/07/03 10:08:15;;;;;;;3.00;2.90;;;;;;;;;;5042706;28;24462;-47
2022/07/03 10:10:42;;;;;;;3.80;3.40;;;;;;;;;;5044637;28;24985;-48
2022/07/03 10:13:07;;;;;;;2.70;2.60;;;;;;;;;;5042694;28;24753;-47
2022/07/03 10:15:37;;;;;;;3.40;3.20;;;;;;;;;;5045040;28;24457;-48
2022/07/03 10:18:04;;;;;;;3.40;3.20;;;;;;;;;;5045090;28;24442;-48
2022/07/03 10:20:30;;;;;;;3.10;2.90;;;;;;;;;;5054990;28;24490;-47
2022/07/03 10:22:55;;;;;;;3.10;2.90;;;;;;;;;;5064809;28;24398;-48
2022/07/03 10:25:21;;;;;;;2.80;2.60;;;;;;;;;;5064996;28;24379;-47
2022/07/03 10:27:46;;;;;;;3.30;3.10;;;;;;;;;;5066190;28;24410;-48
2022/07/03 10:30:13;;;;;;;3.20;3.00;;;;;;;;;;5068676;28;24512;-48
2022/07/03 10:32:39;;;;;;;3.25;3.05;;;;;;;;;;5068666;28;24686;-48
2022/07/03 10:35:05;;;;;;;4.03;3.60;;;;;;;;;;5065947;28;24419;-48
2022/07/03 10:37:32;;;;;;;4.07;3.70;;;;;;;;;;5068597;28;25068;-47
2022/07/03 10:45:32;;;;;;;3.70;3.40;;;;;;;;;;5069386;28;24495;-47
2022/07/03 10:47:57;;;;;;;3.40;3.20;;;;;;;;;;5068900;28;24917;-47
2022/07/03 10:50:23;;;;;;;3.20;3.00;;;;;;;;;;5068911;28;24410;-47
2022/07/03 10:52:48;;;;;;;3.42;3.13;;;;;;;;;;5069248;28;24478;-48
2022/07/03 10:55:14;;;;;;;2.90;2.80;;;;;;;;;;5068072;28;24418;-48
2022/07/03 10:57:40;;;;;;;3.55;3.35;;;;;;;;;;5065788;28;24414;-48
2022/07/03 11:00:08;;;;;;;3.70;3.50;;;;;;;;;;5066415;28;24781;-47
2022/07/03 11:02:35;;;;;;;3.30;3.10;;;;;;;;;;5068802;28;24888;-47
2022/07/03 11:05:03;;;;;;;3.38;3.10;;;;;;;;;;5069260;28;24406;-46
2022/07/03 11:07:29;;;;;;;3.60;3.30;;;;;;;;;;5064361;28;24403;-46
2022/07/03 11:10:10;;;;;;;3.30;3.10;;;;;;;;;;5069130;28;24532;-46
2022/07/03 11:12:55;;;;;;;4.20;4.00;;;;;;;;;;5069479;28;24394;-47
2022/07/03 11:15:31;;;;;;;2.92;2.83;;;;;;;;;;5083214;28;24940;-47
2022/07/03 11:18:09;;;;;;;3.55;3.35;;;;;;;;;;5088248;28;24390;-47
2022/07/03 11:20:43;;;;;;;3.15;3.00;;;;;;;;;;5066701;28;25135;-47
2022/07/03 11:23:26;;;;;;;2.80;2.70;;;;;;;;;;5067995;28;24436;-47
2022/07/03 11:25:56;;;;;;;3.13;2.97;;;;;;;;;;5066603;28;24823;-47
2022/07/03 11:28:33;;;;;;;3.20;3.00;;;;;;;;;;5065392;28;24415;-48
2022/07/03 11:31:07;;;;;;;3.30;3.10;;;;;;;;;;5075598;28;24477;-47
2022/07/03 11:33:44;;;;;;;3.03;2.83;;;;;;;;;;5064179;28;24423;-47
2022/07/03 11:36:10;;;;;;;3.40;3.20;;;;;;;;;;5070389;28;24470;-48
2022/07/03 11:38:35;;;;;;;3.05;2.90;;;;;;;;;;5066360;28;25033;-48
2022/07/03 11:41:00;;;;;;;3.10;2.83;;;;;;;;;;5064823;28;24505;-48
2022/07/03 11:43:26;;;;;;;4.40;4.00;;;;;;;;;;5066704;28;24414;-47
2022/07/03 11:45:51;;;;;;;5.47;4.67;;;;;;;;;;5066647;28;24458;-48
2022/07/03 11:48:17;;;;;;;3.70;3.50;;;;;;;;;;5066941;28;24754;-47
2022/07/03 11:50:44;;;;;;;3.50;3.30;;;;;;;;;;5067329;28;24851;-47
2022/07/03 11:53:16;;;;;;;4.00;3.70;;;;;;;;;;5066839;28;24391;-47
2022/07/03 11:55:48;;;;;;;3.30;3.10;;;;;;;;;;5065482;28;24418;-48
2022/07/03 11:58:13;;;;;;;3.30;3.10;;;;;;;;;;5065743;28;24426;-47
2022/07/03 12:00:39;;;;;;;3.10;2.90;;;;;;;;;;5066986;28;24406;-48
2022/07/03 12:03:04;;;;;;;3.00;2.80;;;;;;;;;;5065022;28;24751;-46
2022/07/03 12:05:29;;;;;;;3.40;3.20;;;;;;;;;;5066575;28;24403;-47
2022/07/03 12:08:01;;;;;;;3.27;3.10;;;;;;;;;;5065309;28;24526;-46
2022/07/03 12:10:40;;;;;;;2.97;2.80;;;;;;;;;;5063894;28;24419;-49
2022/07/03 12:13:18;;;;;;;3.83;3.53;;;;;;;;;;5063854;28;24431;-47
2022/07/03 12:15:43;;;;;;;3.70;3.50;;;;;;;;;;5070879;28;24482;-47
2022/07/03 12:18:08;;;;;;;3.50;3.30;;;;;;;;;;5072530;28;24806;-49
2022/07/03 12:20:33;;;;;;;3.70;3.50;;;;;;;;;;5066492;28;24426;-48
2022/07/03 12:22:58;;;;;;;3.57;3.27;;;;;;;;;;5065272;28;24498;-47
2022/07/03 12:25:28;;;;;;;3.80;3.50;;;;;;;;;;5072767;28;25067;-48
2022/07/03 12:27:54;;;;;;;3.80;3.40;;;;;;;;;;5068665;28;24961;-48
2022/07/03 12:30:22;;;;;;;3.70;3.40;;;;;;;;;;5074633;28;24441;-48
2022/07/03 12:32:47;;;;;;;3.40;3.20;;;;;;;;;;5066324;28;24402;-49
2022/07/03 12:35:12;;;;;;;3.60;3.40;;;;;;;;;;5065035;28;24423;-47
2022/07/03 12:37:40;;;;;;;3.40;3.20;;;;;;;;;;5066423;28;24383;-48
2022/07/03 12:40:06;;;;;;;3.83;3.50;;;;;;;;;;5065323;28;24561;-47
2022/07/03 12:42:41;;;;;;;3.72;3.50;;;;;;;;;;5066257;28;24938;-47
2022/07/03 12:45:10;;;;;;;3.47;3.17;;;;;;;;;;5066105;28;24517;-48
2022/07/03 12:47:35;;;;;;;3.20;3.00;;;;;;;;;;5066431;28;24391;-48
2022/07/03 12:50:01;;;;;;;3.28;3.08;;;;;;;;;;5065775;28;24556;-47
2022/07/03 12:52:27;;;;;;;5.30;3.50;;;;;;;;;;5065802;28;24506;-47
2022/07/03 12:54:52;;;;;;;3.42;3.13;;;;;;;;;;5065828;28;24636;-47
2022/07/03 13:00:05;;;;;;;3.05;2.85;;;;;;;;;;5065948;28;25038;-48
2022/07/03 13:02:31;;;;;;;3.30;3.10;;;;;;;;;;5065887;28;24472;-46
2022/07/03 13:04:58;;;;;;;3.60;3.30;;;;;;;;;;5066006;28;24387;-47
2022/07/03 13:07:27;;;;;;;3.50;3.20;;;;;;;;;;5065471;28;24408;-48
2022/07/03 13:09:52;;;;;;;4.00;3.70;;;;;;;;;;5065904;28;24391;-47
2022/07/03 13:12:22;;;;;;;3.70;3.40;;;;;;;;;;5065277;28;24410;-49
2022/07/03 13:15:00;;;;;;;3.60;3.40;;;;;;;;;;5065373;28;24414;-49
2022/07/03 13:17:44;;;;;;;3.10;2.90;;;;;;;;;;5065484;28;24836;-48
2022/07/03 13:20:09;;;;;;;3.20;3.00;;;;;;;;;;5067984;28;24407;-49
2022/07/03 13:22:34;;;;;;;3.90;3.60;;;;;;;;;;5063943;28;24438;-48
2022/07/03 13:24:59;;;;;;;3.60;3.30;;;;;;;;;;5070006;28;24401;-48
2022/07/03 13:27:25;;;;;;;3.20;3.00;;;;;;;;;;5077092;28;24572;-47
2022/07/03 13:29:50;;;;;;;3.00;2.80;;;;;;;;;;5065367;28;24905;-48
2022/07/03 13:32:15;;;;;;;3.13;2.92;;;;;;;;;;5065166;28;24496;-48
2022/07/03 13:34:40;;;;;;;3.20;3.00;;;;;;;;;;5065620;28;24395;-47
2022/07/03 13:37:05;;;;;;;3.67;3.17;;;;;;;;;;5065147;28;24963;-49
2022/07/03 13:39:30;;;;;;;3.20;2.90;;;;;;;;;;5064726;28;24701;-48
2022/07/03 13:41:55;;;;;;;3.30;3.10;;;;;;;;;;5065448;28;24436;-47
2022/07/03 13:44:21;;;;;;;3.10;2.90;;;;;;;;;;5064919;28;24387;-47
2022/07/03 13:46:46;;;;;;;3.23;3.03;;;;;;;;;;5065125;28;24761;-47
2022/07/03 13:49:11;;;;;;;3.40;3.20;;;;;;;;;;5065034;28;24407;-48
2022/07/03 13:51:36;;;;;;;3.80;3.50;;;;;;;;;;5066465;28;24818;-48
2022/07/03 13:54:01;;;;;;;2.97;2.88;;;;;;;;;;5063995;28;24484;-48
2022/07/03 13:56:26;;;;;;;3.40;3.00;;;;;;;;;;5064860;28;24426;-47
2022/07/03 13:58:52;;;;;;;3.30;3.00;;;;;;;;;;5065160;28;24818;-48
2022/07/03 14:01:17;;;;;;;3.50;3.30;;;;;;;;;;5064629;28;24967;-46
2022/07/03 14:03:42;;;;;;;3.90;3.60;;;;;;;;;;5068354;28;24402;-46
2022/07/03 14:06:07;;;;;;;3.10;3.00;;;;;;;;;;5055340;28;24415;-48
2022/07/03 14:08:33;;;;;;;3.57;3.27;;;;;;;;;;5068917;28;24399;-48
2022/07/03 14:10:58;;;;;;;3.80;3.53;;;;;;;;;;5067811;28;24453;-47
2022/07/03 14:13:23;;;;;;;3.20;3.00;;;;;;;;;;5068810;28;24599;-48
2022/07/03 14:15:48;;;;;;;2.90;2.70;;;;;;;;;;5068649;28;24649;-47
2022/07/03 14:18:13;;;;;;;3.40;3.20;;;;;;;;;;5069021;28;24395;-47
2022/07/03 14:20:38;;;;;;;3.30;3.10;;;;;;;;;;5068761;28;24398;-47
2022/07/03 14:23:04;;;;;;;3.00;2.80;;;;;;;;;;5061973;28;24457;-48
2022/07/03 14:25:29;;;;;;;3.60;3.40;;;;;;;;;;5058184;28;24514;-48
2022/07/03 14:33:22;;;;;;;2.85;2.65;;;;;;;;;;5085201;28;24381;-48
2022/07/03 14:35:47;;;;;;;2.90;2.70;;;;;;;;;;5061416;28;24422;-47
2022/07/03 14:38:12;;;;;;;2.77;2.57;;;;;;;;;;5076756;28;24514;-48
2022/07/03 14:40:37;;;;;;;2.70;2.60;;;;;;;;;;5061286;28;25040;-47
2022/07/03 14:43:02;;;;;;;2.80;2.60;;;;;;;;;;5072614;28;24422;-47
2022/07/03 14:45:28;;;;;;;2.80;2.60;;;;;;;;;;5066058;28;24989;-48
2022/07/03 14:47:53;;;;;;;2.60;2.50;;;;;;;;;;5064455;28;25015;-47
2022/07/03 14:50:18;;;;;;;2.90;2.70;;;;;;;;;;5056602;28;24804;-47
2022/07/03 14:52:43;;;;;;;3.00;2.80;;;;;;;;;;5062800;28;25267;-47
2022/07/03 14:55:10;;;;;;;2.60;2.50;;;;;;;;;;5062837;28;25034;-48
2022/07/03 14:57:37;;;;;;;2.50;2.40;;;;;;;;;;5060806;28;24418;-49
2022/07/03 15:00:07;;;;;;;2.50;2.40;;;;;;;;;;5068538;28;24433;-49
2022/07/03 15:02:35;;;;;;;2.90;2.60;;;;;;;;;;5061809;28;24430;-49
2022/07/03 15:05:08;;;;;;;2.70;2.60;;;;;;;;;;5063404;28;24418;-48